Accueil
METAR-TAF:

METAR-TAF

Aéroports :

Iran Shahr, Iran

latitude: 27-12N, longitude: 060-42E, altitude: 591 m

Observation

Le bulletin a été fait il y a 1 heure et 37 minutes, à 21:00 UTC
Vent 4 kt de sud-est
Température 17°C
Humidité 59%
Pression 1021 hPa
Visibilité 10 km ou plus
pas de nuages en-dessous de 1500 mètres et pas de cumulonimbus.

METAR: OIZI 222100Z 14004KT CAVOK 17/09 Q1021

Heure: 02:07 (22:37 UTC)


TAF: absent

Observations et prévisions météorologiques de plus de 4000 aéroports (messages METAR et TAF).

Les stations disponibles sont représentées par des disques jaunes et rouges sur la carte.

Passer la souris dessus pour voir le nom de la station.

Cliquer dessus pour voir les observations et prévisions météorologiques.

Pour changer de carte: cliquez sur les boutons verts avec une croix noire pour zoomer, sur le bouton vert avec un tiret pour effectuer un zoom arrière, ou sur les flèches vertes pour les cartes adjacentes.


METAR-TAF: